Huvudsida
METAR-TAF:

METAR-TAF

Flygplatser :

San Angelo Regional Airport (Mathis Field)

San Angelo, Texas, USA

latitud: 31-21-05N, longitud: 100-29-38W, höjd: 584 m

Aktuellt väderrapport

Denna rapport gjordes för 1 timme och 2 minuter sedan, klockan 03:51 UTC
Vind 6 kt från väst
Temperatur 6°C
Fuktighet 70%
Tryck 1018 hPa
Sikt: 16.1 km
Klar himmel

METAR: KSJT 290351Z AUTO 28006KT 10SM CLR 06/01 A3006 RMK AO2 SLP182 T00560006

Tid: 22:53 (04:53 UTC)

Väderprognos

Denna rapport gjordes för 5 timmar och 33 minuter sedan, klockan 23:20 UTC
Prognos gäller från 29 kl. 00 UTC till 29 kl. 24 UTC
Vind 18 kt från nordväst i byarna ända upp till 27 kt
Sikt: 10 km
Brutna moln på en höjd av 6000 ft
Från 29 kl. 0200 UTC
Vind 17 kt från nordväst i byarna ända upp till 24 kt
Sikt: 10 km
Få moln på en höjd av 25000 ft
Från 29 kl. 0400 UTC
Vind 12 kt från nord/nordväst
Sikt: 10 km
Klar himmel

TAF: KSJT 282320Z 2900/2924 32018G27KT P6SM BKN060 FM290200 32017G24KT P6SM FEW250 FM290400 33012KT P6SM SKC

Aktuella väderrapporter och prognoser från 4000 flygplatser (METAR- och TAF-rapporter).

De tillgängliga stationerna syns som gula och röda prickar på kartan.

För musen över prickarna för att se namnen på stationerna.

Klicka sedan för att få väderrapporter och prognoser.

För att ändra kartan: Klicka på de gröna knapparna med ett svart kors på för att zooma in; den gröna knappen med ett streck på för att zooma ut; eller på de gröna pilarna för angränsande kartor.


METAR-TAF: